Tiempo atmosférico en la estación meteorológica de Alicante/Alacant, Alacant/Alicante (81 m.)



Fecha
DESCASC
Temp. máxima en grados centígrados (hora)
DESCASC
Temp. mínima en grados centígrados (hora)
DESCASC
Temp. media en grados centígrados
DESCASC
Racha de viento máxima en m/sg (hora)
DESCASC
Velocidad máxima media en intervalos de 10 minutos(hora)
DESCASC
Precipitaciones diarias en mm
DESCASC
Precipitaciones de 00:00 a 06:00 en mm
DESCASC
Precipitaciones de 06:00 a 12:00 en mm
DESCASC
Precipitaciones de 12:00 a 18:00 en mm
DESCASC
Precipitaciones de 18:00 a 24:00 en mm
DESCASC
13-10-2019 27.5 (14:10) 16.4 (08:00) 21.9 5.56 (16:00) 3.33 (16:00) 0 0 0 0 0
12-10-2019 26.3 (12:50) 17.8 (05:30) 22 8.89 (19:40) 5 (16:30) 0 0 0 0 0
11-10-2019 25.8 (15:00) 18.2 (08:50) 22 7.5 (15:00) 4.17 (15:00) 0 0 0 0 0
10-10-2019 26.7 (15:10) 18.5 (00:00) 22.6 6.39 (17:20) 3.33 (17:00) 0 0 0 0 0
09-10-2019 26.4 (14:30) 16.6 (00:00) 21.5 6.11 (15:00) 3.33 (13:10) 0 0 0 0 0
08-10-2019 26.3 (14:00) 18 (00:00) 22.1 8.06 (16:30) 5 (15:20) 0 0 0 0 0
07-10-2019 26.7 (12:10) 17.9 (00:00) 22.3 8.61 (16:00) 5.28 (15:50) 0 0 0 0 0
06-10-2019 26.8 (15:50) 16.4 (00:00) 21.6 5.28 (14:20) 3.06 (14:20) 0 0 0 0 0
05-10-2019 27 (15:20) 15.9 (00:00) 21.4 5.28 (13:40) 3.33 (12:00) 0 0 0 0 0
04-10-2019 27.2 (14:10) 14.3 (00:00) 20.8 4.72 (15:30) 3.06 (15:30) 0 0 0 0 0
03-10-2019 28.5 (14:00) 15.9 (00:00) 22.2 6.39 (14:40) 3.89 (14:40) 0 0 0 0 0
02-10-2019 29.9 (15:00) 19.9 (00:00) 24.9 11.11 (03:10) 4.72 (02:20) 0 0 0 0 0
01-10-2019 31.5 (15:30) 17.9 (00:00) 24.7 6.39 (15:50) 4.17 (15:50) 0 0 0 0 0
30-09-2019 27.6 (13:30) 17.1 (00:00) 22.4 5.56 (13:00) 3.06 (13:00) 0 0 0 0 0
29-09-2019 28.8 (13:20) 16.9 (00:00) 22.8 6.39 (14:40) 3.89 (14:40) 0 0 0 0 0
28-09-2019 26.9 (16:20) 18.3 (00:00) 22.6 5.28 (14:10) 3.06 (14:10) 0 0 0 0 0
27-09-2019 28.2 (13:30) 17.5 (00:00) 22.9 5.83 (14:50) 3.61 (14:50) 0 0 0 0 0
26-09-2019 27.8 (15:00) 18.5 (00:00) 23.1 4.72 (13:40) 3.33 (14:40) 0 0 0 0 0
25-09-2019 32.8 (15:00) 19.8 (00:00) 26.3 9.44 (16:00) 5.28 (16:00) 0 0 0 0 0
24-09-2019 32.1 (15:20) 17.8 (00:00) 24.9 8.06 (17:10) 5 (16:50) 0 0 0 0 0
23-09-2019 27.8 (13:40) 21.1 (00:00) 24.4 6.39 (07:20) 3.61 (15:10) 0 0 0 0 0
22-09-2019 28.1 (11:30) 21.8 (00:00) 24.9 5.28 (11:40) 3.33 (11:40) 0 0 0 0 0
21-09-2019 29.7 (16:20) 20.9 (00:00) 25.3 7.5 (16:00) 4.17 (15:50) 0 0 0 0 0
20-09-2019 26.8 (14:20) 20.7 (00:00) 23.8 9.72 (14:50) 5.28 (12:50) 0 0 0 0 0
19-09-2019 27.3 (15:10) 18.6 (00:00) 22.9 6.39 (12:10) 3.06 (12:10) 0 0 0 0 0
18-09-2019 28.3 (14:40) 19.2 (00:00) 23.8 5.28 (15:20) 3.33 (15:20) 0 0 0 0 0
17-09-2019 28.1 (13:10) 20.3 (00:00) 24.2 6.67 (14:00) 3.89 (14:00) 0 0 0 0 0

Gráficas

Temp. máximas Temp. mínimas Temp. medias Precipitaciones Rachas de viento máximas Velocidades máximas media en intervalos de 10 minutos

Datos horarios

Fecha y hora oficial Temperatura (ºC) Velocidad del viento (km/h) Dirección del viento Racha (km/h) Dirección de racha Precipitación (mm) Presión (hPa) Tendencia (hPa) Humedad (%)
2019-10-16 23:00:00 16.3 5 Noroeste 8 Norte 0 1008.7 0.8 79
2019-10-16 22:00:00 17 0 Calma 5 Noroeste 0 1008.3 0.5 74
2019-10-16 21:00:00 18.1 4 Oeste 5 Oeste 0 1008 0.2 71
2019-10-16 20:00:00 19.7 4 Sudoeste 14 Sudoeste 0 1007.9 -0.2 65
2019-10-16 19:00:00 21.2 10 Sur 21 Sur 0 1007.8 -0.9 61
2019-10-16 18:00:00 23 13 Sur 25 Sur 0 1007.8 -1.3 50
2019-10-16 17:00:00 24.1 13 Sur 24 Sur 0 1008.1 -2 44
2019-10-16 16:00:00 24.3 16 Sur 28 Sudoeste 0 1008.7 -2 41
2019-10-16 15:00:00 24.9 13 Sudoeste 28 Sur 0 1009.1 -2.1 27
2019-10-16 14:00:00 24.5 12 Sudoeste 23 Sudoeste 0 1010.1 -1.1 28
2019-10-16 13:00:00 24.1 8 Sudoeste 18 Sudoeste 0 1010.7 -0.5 28
2019-10-16 12:00:00 23.2 5 Sudoeste 11 Sudoeste 0 1011.2 0.5 30
2019-10-16 11:00:00 21.2 4 Oeste 9 Sudoeste 0 1011.2 0.8 37
2019-10-16 10:00:00 16.6 6 Noroeste 14 Noroeste 0 1011.2 0.8 47
2019-10-16 09:00:00 13 5 Noroeste 15 Noroeste 0 1010.7 0.3 57
2019-10-16 08:00:00 12 4 Noroeste 10 Noroeste 0 1010.4 -0.2 59
2019-10-16 07:00:00 11.6 4 Oeste 9 Noroeste 0 1010.4 -0.2 63
2019-10-16 06:00:00 12.4 5 Noroeste 12 Noroeste 0 1010.4 -0.7 57
2019-10-16 05:00:00 13 4 Noroeste 15 Noroeste 0 1010.6 -0.3 53
2019-10-16 04:00:00 13 5 Noroeste 11 Noroeste 0 1010.6 -0.3 55
2019-10-16 03:00:00 13.1 3 Noroeste 9 Noroeste 0 1011.1 0 57
2019-10-16 02:00:00 13.8 3 Oeste 9 Oeste 0 1010.9 -0.2 54
2019-10-16 01:00:00 14.3 3 Oeste 11 Noroeste 0 1010.9 0.2 52
2019-10-16 00:00:00 14.6 4 Oeste 9 Noroeste 0 1011.1 1 52
2019-10-15 23:00:00 14.8 3 Noroeste 8 Noroeste 0 1011.1 1.4 53
2019-10-15 22:00:00 15.7 3 Noroeste 9 Noroeste 0 1010.7 1.4 48
2019-10-15 21:00:00 17.3 4 Oeste 11 Noroeste 0 1010.1 1.3 43
2019-10-15 20:00:00 19.3 4 Noroeste 13 Oeste 0 1009.7 0.9 33
2019-10-15 19:00:00 21.6 6 Oeste 19 Oeste 0 1009.3 0.3 28
2019-10-15 18:00:00 23.2 10 Oeste 23 Oeste 0 1008.8 -0.4 24
2019-10-15 17:00:00 24.5 10 Oeste 24 Oeste 0 1008.8 -1 25
2019-10-15 16:00:00 24.7 8 Sudoeste 25 Oeste 0 1009 -1.1 24
2019-10-15 15:00:00 23.7 8 Oeste 22 Oeste 0 1009.2 -1.1 28
2019-10-15 14:00:00 22.6 9 Noroeste 30 Noroeste 0 1009.8 -0.3 30
2019-10-15 13:00:00 21.5 10 Oeste 29 Oeste 0 1010.1 0.6 32
2019-10-15 12:00:00 20.3 10 Oeste 25 Noroeste 0 1010.3 1.5 36
2019-10-15 11:00:00 18.8 9 Oeste 26 Sudoeste 0 1010.1 2.1 41
2019-10-15 10:00:00 16.9 10 Oeste 23 Oeste 0 1009.5 1.8 46
2019-10-15 09:00:00 15 4 Noroeste 27 Noroeste 0 1008.8 1.8 58
2019-10-15 08:00:00 15.2 16 Noroeste 30 Noroeste 0 1008 1.2 55
2019-10-15 07:00:00 15.1 6 Noroeste 24 Noroeste 0 1007.7 1.5 57
2019-10-15 06:00:00 16.1 14 Noroeste 36 Noroeste 0 1007 0.7 53
2019-10-15 05:00:00 16.5 15 Noroeste 39 Noroeste 0 1006.8 0.4 53
2019-10-15 04:00:00 17 9 Noroeste 35 Noroeste 0 1006.2 0.4 54
2019-10-15 03:00:00 16.7 7 Noroeste 21 Noroeste 0 1006.3 1.7 55
2019-10-15 02:00:00 16.8 10 Noroeste 30 Noroeste 0 1006.4 2.2 64
2019-10-15 01:00:00 16.9 5 Oeste 27 Noroeste 0 1005.8 2 75
2019-10-15 00:00:00 17.4 6 Noroeste 17 Noroeste 0 1004.6 1 81
2019-10-14 23:00:00 18.4 4 Oeste 9 Sur 0 1004.2 1.5 96
2019-10-14 22:00:00 18.2 4 Norte 21 Norte 0.2 1003.8 1.5 93
2019-10-14 21:00:00 19.7 14 Noroeste 40 Oeste 9.2 1003.6 1.2 86
2019-10-14 20:00:00 22.6 4 Sudeste 18 Sur 0 1002.7 0.1 80
2019-10-14 19:00:00 23.3 8 Sudeste 21 Sudeste 0 1002.3 -0.8 78
2019-10-14 18:00:00 24 11 Sudeste 21 Sudeste 0 1002.4 -0.6 76
2019-10-14 17:00:00 25.1 9 Sur 19 Sudeste 0 1002.6 -1.1 71
2019-10-14 16:00:00 24.7 11 Sur 22 Sur 0 1003.1 0.3 70
2019-10-14 15:00:00 24.8 8 Sur 19 Sur 0.2 1003 -2.6 68
2019-10-14 14:00:00 22.2 3 Sudeste 17 Norte 0 1003.7 -1 80
2019-10-14 13:00:00 22.5 8 Norte 17 Norte 0.8 1002.8 -0.9 82
2019-10-14 12:00:00 23.1 8 Oeste 16 Oeste 0 1005.6 2.1 75
2019-10-14 11:00:00 23.5 5 Sudoeste 13 Este 0 1004.7 0.8 73
2019-10-14 10:00:00 20.8 2 Norte 12 Nordeste 0 1003.7 -0.6 72
2019-10-14 09:00:00 18.5 7 Nordeste 11 Norte 0 1003.5 -0.7 79
2019-10-14 08:00:00 17.4 5 Norte 11 Norte 0 1003.9 -0.8 82
2019-10-14 07:00:00 17.7 3 Noroeste 7 Norte 0 1004.3 -1.3 85
2019-10-14 06:00:00 18.7 7 Norte 13 Nordeste 0 1004.2 -2.1 81
2019-10-14 05:00:00 19.8 6 Norte 12 Norte 0 1004.7 -1.7 85
2019-10-14 04:00:00 20.9 6 Norte 9 Norte 0 1005.6 -0.9 87
2019-10-14 03:00:00 20.8 5 Norte 7 Norte 0 1006.3 -0.5 88
2019-10-14 02:00:00 20.5 2 Oeste 7 Norte 0 1006.4 -0.3 87
2019-10-14 01:00:00 19.7 5 Norte 6 Noroeste 0 1006.5 -0.3 87
2019-10-14 00:00:00 20.1 4 Norte 11 Nordeste 0 1006.8 -0.1 87
2019-10-13 23:00:00 20.8 5 Nordeste 7 Nordeste 0 1006.7 -0.2 89
2019-10-13 22:00:00 21.4 2 Noroeste 4 Oeste 0 1006.8 0 86
2019-10-13 21:00:00 22.1 0 Calma 6 Norte 0 1006.9 0.4 84
2019-10-13 20:00:00 22.8 0 Calma 12 Este 0 1006.9 0.5 80
2019-10-13 19:00:00 23.6 6 Sudeste 14 Sudeste 0 1006.8 0.4 78
2019-10-13 18:00:00 24.7 9 Sudeste 18 Sudeste 0 1006.5 -0.2 74
2019-10-13 17:00:00 26.2 8 Sudeste 18 Sur 0 1006.4 -0.8 66
2019-10-13 16:00:00 27.1 12 Sur 20 Sur 0 1006.4 -1.6 62
2019-10-13 15:00:00 26.8 10 Sudeste 19 Sudeste 0 1006.7 -1.2 60
2019-10-13 14:00:00 27.4 8 Sur 18 Sur 0 1007.2 -0.5 54
2019-10-13 13:00:00 27 9 Sur 17 Sur 0 1008 0.7 53
2019-10-13 12:00:00 26.5 6 Sur 13 Sur 0 1007.9 1.1 48
2019-10-13 11:00:00 24.6 3 Sudoeste 7 Oeste 0 1007.7 1.4 55
2019-10-13 10:00:00 20.3 4 Noroeste 9 Noroeste 0 1007.3 1.1 69
2019-10-13 09:00:00 17.5 4 Noroeste 11 Noroeste 0 1006.8 0.7 78
2019-10-13 08:00:00 16.5 6 Noroeste 11 Noroeste 0 1006.3 0.1 77
2019-10-13 07:00:00 16.7 4 Noroeste 9 Noroeste 0 1006.2 -0.6 81
2019-10-13 06:00:00 17.2 4 Noroeste 6 Noroeste 0 1006.1 -1.3 86
2019-10-13 05:00:00 18 4 Norte 9 Norte 0 1006.2 -1.4 83
2019-10-13 04:00:00 18.3 5 Norte 8 Norte 0 1006.8 -1 85
2019-10-13 03:00:00 18.9 6 Norte 10 Nordeste 0 1007.4 -0.4 87
2019-10-13 02:00:00 19.7 5 Norte 9 Norte 0 1007.6 -0.1 87
2019-10-13 01:00:00 20.2 4 Norte 10 Este 0 1007.8 0.6 88
2019-10-13 00:00:00 21.2 6 Nordeste 10 Nordeste 0 1007.8 0.8 87
2019-10-12 23:00:00 22.1 4 Norte 17 Este 0 1007.7 0.8 84
2019-10-12 22:00:00 22.5 9 Nordeste 16 Este 0 1007.2 1 82
2019-10-12 21:00:00 22.9 8 Nordeste 23 Nordeste 0 1007 0.6 80
2019-10-12 20:00:00 23.4 13 Este 32 Este 0 1006.9 0.3 78
2019-10-12 19:00:00 23.9 14 Este 30 Este 0 1006.2 -0.8 78
2019-10-12 18:00:00 24.2 13 Este 28 Este 0 1006.4 -1.1 78
2019-10-12 17:00:00 25.5 14 Este 31 Nordeste 0 1006.6 -1.5 73
2019-10-12 16:00:00 25.9 16 Nordeste 31 Este 0 1007 -1.5 72
2019-10-12 15:00:00 25.6 15 Este 28 Este 0 1007.5 -1.5 73
2019-10-12 14:00:00 25.3 13 Este 24 Nordeste 0 1008.1 -0.9 69
2019-10-12 13:00:00 26.1 11 Este 26 Este 0 1008.5 -0.1 65
2019-10-12 12:00:00 25 13 Este 29 Nordeste 0 1009 0.9 67
2019-10-12 11:00:00 24.7 9 Nordeste 19 Este 0 1009 1 67
2019-10-12 10:00:00 20.5 3 Oeste 8 Norte 0 1008.6 0.6 65
2019-10-12 09:00:00 18.3 4 Norte 9 Oeste 0 1008.1 0.3 72
2019-10-12 08:00:00 18 3 Oeste 6 Oeste 0 1008 0 76
2019-10-12 07:00:00 17.8 3 Noroeste 7 Oeste 0 1008 -0.4 74
2019-10-12 06:00:00 18 4 Noroeste 9 Nordeste 0 1007.8 -1.3 71
2019-10-12 05:00:00 18 5 Norte 10 Norte 0 1008 -1.7 70
2019-10-12 04:00:00 18.1 4 Norte 8 Norte 0 1008.4 -1.7 76
2019-10-12 03:00:00 18.2 5 Norte 9 Norte 0 1009.1 -1.2 85
2019-10-12 02:00:00 18.9 4 Noroeste 7 Norte 0 1009.7 -0.5 86
2019-10-12 01:00:00 19.4 4 Norte 6 Norte 0 1010.1 0.2 85
2019-10-12 00:00:00 20.3 4 Norte 9 Norte 0 1010.3 0.9 82
2019-10-11 23:00:00 20.9 6 Nordeste 10 Nordeste 0 1010.2 0.6 80
2019-10-11 22:00:00 21.8 6 Nordeste 16 Este 0 1009.9 0.5 78
2019-10-11 21:00:00 22.4 10 Nordeste 18 Nordeste 0 1009.4 0 78
2019-10-11 20:00:00 22.5 8 Este 18 Este 0 1009.6 -0.2 77
2019-10-11 19:00:00 23.1 11 Este 23 Este 0 1009.4 -0.9 74
2019-10-11 18:00:00 23.9 13 Nordeste 26 Nordeste 0 1009.4 -1.2 70
2019-10-11 17:00:00 25.2 13 Este 25 Sudeste 0 1009.8 -1.8 66
2019-10-11 16:00:00 25.4 13 Este 26 Este 0 1010.3 -2.1 62
2019-10-11 15:00:00 25.6 15 Este 27 Nordeste 0 1010.6 -2 62
2019-10-11 14:00:00 25.4 12 Este 24 Sudeste 0 1011.6 -1.1 62
2019-10-11 13:00:00 25.4 13 Este 25 Este 0 1012.4 0.1 66
2019-10-11 12:00:00 24.9 11 Este 22 Nordeste 0 1012.6 0.9 65
2019-10-11 11:00:00 24.3 10 Nordeste 17 Nordeste 0 1012.7 1.2 67
2019-10-11 10:00:00 21.6 5 Nordeste 11 Norte 0 1012.3 0.8 73
2019-10-11 09:00:00 18.5 6 Norte 9 Norte 0 1011.7 0 81
2019-10-11 08:00:00 18.4 5 Norte 12 Norte 0 1011.5 0 82
2019-10-11 07:00:00 18.7 5 Norte 10 Norte 0 1011.5 -0.3 82
2019-10-11 06:00:00 18.5 5 Norte 9 Norte 0 1011.7 -0.3 85
2019-10-11 05:00:00 18.8 5 Norte 7 Norte 0 1011.5 -0.6 86
2019-10-11 04:00:00 19.4 2 Norte 9 Nordeste 0 1011.8 -0.6 84
2019-10-11 03:00:00 20 4 Norte 9 Norte 0 1012 -0.3 83
2019-10-11 02:00:00 20.8 5 Nordeste 10 Norte 0 1012.1 -0.2 81
2019-10-11 01:00:00 21.7 4 Nordeste 14 Este 0 1012.4 0.5 78
2019-10-11 00:00:00 22 8 Este 15 Este 0 1012.3 0.8 78
2019-10-10 23:00:00 22.2 8 Este 16 Este 0 1012.3 1.1 77
2019-10-10 22:00:00 22.2 8 Este 14 Este 0 1011.9 0.9 76
2019-10-10 21:00:00 22.4 7 Este 14 Nordeste 0 1011.5 0.7 75
2019-10-10 20:00:00 22.6 7 Este 17 Nordeste 0 1011.2 0.5 75
2019-10-10 19:00:00 23 9 Este 19 Sudeste 0 1011 0.2 74
2019-10-10 18:00:00 23.7 8 Sudeste 23 Sudeste 0 1010.8 -0.3 73
2019-10-10 17:00:00 25.3 12 Este 21 Este 0 1010.7 -0.9 63
2019-10-10 16:00:00 25.9 10 Sudeste 19 Sudeste 0 1010.8 -1.3 56
2019-10-10 15:00:00 26.3 9 Sudeste 19 Este 0 1011.1 -1.1 58
2019-10-10 14:00:00 26 10 Este 20 Sudeste 0 1011.6 -0.6 59
2019-10-10 13:00:00 25.7 7 Este 15 Nordeste 0 1012.1 0.1 58
2019-10-10 12:00:00 25.2 9 Este 18 Este 0 1012.2 1.1 61
2019-10-10 11:00:00 24.4 7 Este 18 Nordeste 0 1012.2 1.8 66
2019-10-10 10:00:00 21.9 5 Nordeste 9 Norte 0 1012 2.1 72
2019-10-10 09:00:00 19.1 5 Norte 7 Norte 0 1011.1 1.4 81
2019-10-10 08:00:00 18.7 4 Norte 8 Norte 0 1010.4 0.7 84
2019-10-10 07:00:00 19.4 3 Norte 9 Norte 0 1009.9 0.1 82
2019-10-10 06:00:00 20.3 5 Nordeste 11 Nordeste 0 1009.7 -0.1 82
2019-10-10 05:00:00 21.2 7 Nordeste 12 Nordeste 0 1009.7 0 79
2019-10-10 04:00:00 21.7 5 Nordeste 10 Nordeste 0 1009.8 0.2 79
2019-10-10 03:00:00 21.7 5 Nordeste 7 Nordeste 0 1009.8 0.3 77
2019-10-10 02:00:00 21.6 5 Nordeste 12 Norte 0 1009.7 0.5 77
2019-10-10 01:00:00 21.4 5 Nordeste 9 Nordeste 0 1009.6 1.2 76
2019-10-10 00:00:00 21.1 4 Norte 10 Nordeste 0 1009.5 1.6 78
2019-10-09 23:00:00 20.9 6 Nordeste 9 Nordeste 0 1009.2 1.9 79
2019-10-09 22:00:00 21.2 4 Norte 6 Norte 0 1008.4 1.6 78
2019-10-09 21:00:00 21.7 4 Nordeste 8 Sudeste 0 1007.9 1.6 75
2019-10-09 20:00:00 22.3 5 Sudeste 11 Sudeste 0 1007.3 0.9 73
2019-10-09 19:00:00 23.2 8 Sudeste 14 Sudeste 0 1006.8 0.1 70
2019-10-09 18:00:00 24.8 9 Sudeste 14 Sudeste 0 1006.3 -0.6 63
2019-10-09 17:00:00 25.8 6 Sur 19 Sur 0 1006.4 -1.1 59
2019-10-09 16:00:00 26.3 9 Sur 19 Sudeste 0 1006.7 -1.3 55
2019-10-09 15:00:00 26.2 10 Sur 22 Sur 0 1006.9 -1.2 55
2019-10-09 14:00:00 25.8 9 Sudeste 20 Sudeste 0 1007.5 -0.7 57
2019-10-09 13:00:00 25.9 8 Sur 15 Sudeste 0 1008 -0.2 57
2019-10-09 12:00:00 25 6 Sudoeste 16 Sudoeste 0 1008.1 0.5 58
2019-10-09 11:00:00 23.9 5 Sudoeste 12 Sudoeste 0 1008.2 1 64
2019-10-09 10:00:00 20.6 3 Noroeste 5 Noroeste 0 1008.2 0.9 77
2019-10-09 09:00:00 17.5 2 Noroeste 7 Noroeste 0 1007.6 0.4 86
2019-10-09 08:00:00 16.7 4 Noroeste 7 Noroeste 0 1007.2 -0.1 88
2019-10-09 07:00:00 16.9 3 Noroeste 8 Norte 0 1007.3 -0.3 88
2019-10-09 06:00:00 16.9 3 Norte 5 Noroeste 0 1007.2 -0.8 88
2019-10-09 05:00:00 17.2 3 Noroeste 6 Noroeste 0 1007.3 -1 86
2019-10-09 04:00:00 17.4 3 Oeste 6 Noroeste 0 1007.6 -1 85
2019-10-09 03:00:00 17.7 3 Oeste 6 Noroeste 0 1008 -0.8 84
2019-10-09 02:00:00 18.1 3 Noroeste 5 Oeste 0 1008.3 -0.5 83
2019-10-09 01:00:00 18.5 3 Noroeste 5 Noroeste 0 1008.6 -0.1 82
2019-10-09 00:00:00 19 3 Noroeste 5 Noroeste 0 1008.8 -0.1 81
2019-10-08 23:00:00 19.7 2 Noroeste 5 Norte 0 1008.8 0 79
2019-10-08 22:00:00 20.4 4 Noroeste 6 Sudoeste 0 1008.7 0.1 76
2019-10-08 21:00:00 21.5 4 Sudoeste 12 Sur 0 1008.9 0.2 72
2019-10-08 20:00:00 22.3 8 Sur 15 Sudoeste 0 1008.8 -0.1 68
2019-10-08 19:00:00 23.4 10 Sur 21 Sur 0 1008.6 -0.6 64
2019-10-08 18:00:00 24.7 10 Sur 23 Sur 0 1008.7 -0.8 60
2019-10-08 17:00:00 25.4 13 Sur 29 Sur 0 1008.9 -1.2 57
2019-10-08 16:00:00 25.7 16 Sur 28 Sur 0 1009.2 -1.7 58
2019-10-08 15:00:00 26.2 14 Sur 27 Sudoeste 0 1009.5 -1.9 59
2019-10-08 14:00:00 26.3 10 Sur 23 Sudeste 0 1010.1 -1.3 59
2019-10-08 13:00:00 24.1 5 Sudeste 17 Sur 0 1010.9 -0.2 66
2019-10-08 12:00:00 24.8 6 Sur 17 Sur 0 1011.4 0.8 64
2019-10-08 11:00:00 23.8 5 Sudoeste 14 Sur 0 1011.4 1.2 67
2019-10-08 10:00:00 21.6 3 Noroeste 8 Noroeste 0 1011.1 1.2 77
2019-10-08 09:00:00 19.5 4 Noroeste 7 Noroeste 0 1010.6 1 84
2019-10-08 08:00:00 18.6 3 Noroeste 6 Norte 0 1010.2 0.7 83
2019-10-08 07:00:00 18.8 4 Norte 10 Nordeste 0 1009.9 0.6 79
2019-10-08 06:00:00 18.5 5 Norte 8 Norte 0 1009.6 0.4 82
2019-10-08 05:00:00 18.5 4 Norte 6 Norte 0 1009.5 0.3 82
2019-10-08 04:00:00 18 3 Noroeste 4 Oeste 0 1009.3 0 84
2019-10-08 03:00:00 18.4 2 Noroeste 5 Noroeste 0 1009.2 0 82
2019-10-08 02:00:00 18.8 3 Noroeste 5 Noroeste 0 1009.2 -0.1 80
2019-10-08 01:00:00 19.3 3 Noroeste 5 Norte 0 1009.3 0.5 77
2019-10-08 00:00:00 20.1 2 Norte 7 Noroeste 0 1009.2 1 74
2019-10-07 23:00:00 20.6 4 Norte 6 Norte 0 1009.3 1.4 72
2019-10-07 22:00:00 20.7 2 Norte 5 Norte 0 1008.8 1.4 72
2019-10-07 21:00:00 21.6 2 Noroeste 5 Sudeste 0 1008.2 1.2 69
2019-10-07 20:00:00 22.2 3 Sur 10 Sudeste 0 1007.9 1.2 66
2019-10-07 19:00:00 22.7 5 Sudeste 14 Nordeste 0 1007.4 0.6 63
2019-10-07 18:00:00 23.2 8 Este 19 Nordeste 0 1007 0.6 60
2019-10-07 17:00:00 24.1 11 Este 30 Este 0 1006.7 0.1 57
2019-10-07 16:00:00 24.9 14 Este 31 Este 0 1006.8 0 58
2019-10-07 15:00:00 25.6 10 Sudeste 20 Sur 0 1006.4 0 66
2019-10-07 14:00:00 25.7 10 Sudeste 25 Sudeste 0 1006.6 0 65
2019-10-07 13:00:00 25.9 12 Sudeste 20 Este 0 1006.8 0.5 45
2019-10-07 12:00:00 26.6 7 Sudeste 12 Sudeste 0 1006.4 0.6 45
2019-10-07 11:00:00 25.1 6 Sur 12 Sur 0 1006.6 0.8 61
2019-10-07 10:00:00 22 3 Sur 6 Oeste 0 1006.3 1 86
2019-10-07 09:00:00 18.6 3 Oeste 9 Oeste 0 1005.8 0.3 90
2019-10-07 08:00:00 18.1 3 Oeste 6 Noroeste 0 1005.8 0.1 92
2019-10-07 07:00:00 18.6 3 Noroeste 8 Norte 0 1005.3 -0.6 90
2019-10-07 06:00:00 19.6 4 Norte 11 Nordeste 0 1005.5 -0.8 91
2019-10-07 05:00:00 19.6 5 Norte 14 Nordeste 0 1005.7 -0.6 92
2019-10-07 04:00:00 20 9 Nordeste 15 Nordeste 0 1005.9 -0.9 92
2019-10-07 03:00:00 19.4 10 Nordeste 17 Nordeste 0 1006.3 -1 87
2019-10-07 02:00:00 19.6 3 Noroeste 8 Oeste 0 1006.3 -1.4 89
2019-10-07 01:00:00 20.2 5 Oeste 9 Oeste 0 1006.8 -0.7 90
2019-10-07 00:00:00 20.8 4 Oeste 8 Oeste 0 1007.3 -0.1 89
2019-10-06 23:00:00 21.4 3 Oeste 10 Oeste 0 1007.7 0.7 88
2019-10-06 22:00:00 22 4 Sudoeste 9 Sudoeste 0 1007.5 0.3 86
2019-10-06 21:00:00 22.4 4 Sudoeste 8 Sudoeste 0 1007.4 0.2 84
2019-10-06 20:00:00 23 3 Sur 10 Sur 0 1007 -0.6 80
2019-10-06 19:00:00 24 5 Sudeste 11 Sur 0 1007.2 -0.6 76
2019-10-06 18:00:00 24.4 8 Sudeste 17 Sudeste 0 1007.2 -0.8 75
2019-10-06 17:00:00 25.9 9 Sudeste 17 Sur 0 1007.6 -1.1 68
2019-10-06 16:00:00 26.1 9 Sudeste 18 Este 0 1007.8 -1.2 67
2019-10-06 15:00:00 26.2 7 Sudeste 19 Sudeste 0 1008 -0.8 64
2019-10-06 14:00:00 26.1 8 Sudeste 15 Sur 0 1008.7 0.1 64
2019-10-06 13:00:00 25.7 9 Sudeste 18 Sudeste 0 1009 0.7 67
2019-10-06 12:00:00 25.6 6 Sur 13 Sur 0 1008.8 1 66
2019-10-06 11:00:00 23.9 3 Nordeste 8 Nordeste 0 1008.6 1.3 73
2019-10-06 10:00:00 20.7 3 Noroeste 7 Norte 0 1008.3 1 75
2019-10-06 09:00:00 17.2 3 Noroeste 5 Norte 0 1007.8 0.9 86
2019-10-06 08:00:00 16.5 4 Noroeste 7 Norte 0 1007.3 0.6 87
2019-10-06 07:00:00 16.8 4 Noroeste 7 Noroeste 0 1007.3 0.4 86
2019-10-06 06:00:00 16.9 3 Noroeste 10 Nordeste 0 1006.9 0.1 84
2019-10-06 05:00:00 17.5 5 Nordeste 10 Nordeste 0 1006.7 0 83
2019-10-06 04:00:00 17.6 4 Norte 8 Nordeste 0 1006.9 0 85
2019-10-06 03:00:00 18 0 Calma 6 Norte 0 1006.8 -0.1 88
2019-10-06 02:00:00 18.6 4 Noroeste 7 Noroeste 0 1006.7 -0.4 84
2019-10-06 01:00:00 19.4 3 Oeste 6 Noroeste 0 1006.9 0 87
2019-10-06 00:00:00 19.8 3 Oeste 8 Oeste 0 1006.9 0.6 85
2019-10-05 23:00:00 20.6 4 Oeste 9 Oeste 0 1007.1 1 83
2019-10-05 22:00:00 21.3 3 Noroeste 5 Oeste 0 1006.9 1.2 85
2019-10-05 21:00:00 22 2 Noroeste 4 Sudeste 0 1006.3 0.7 81
2019-10-05 20:00:00 23 3 Sudeste 10 Este 0 1006.1 0.4 77
2019-10-05 19:00:00 24.2 6 Sudeste 15 Este 0 1005.7 -0.2 72
2019-10-05 18:00:00 25.7 8 Sudeste 16 Sudeste 0 1005.6 -0.4 67
2019-10-05 17:00:00 26.2 9 Sudeste 19 Sudeste 0 1005.7 -0.8 65
2019-10-05 16:00:00 26.3 10 Sudeste 19 Sur 0 1005.9 -0.8 65
2019-10-05 15:00:00 26.9 10 Sudeste 19 Sudeste 0 1006 -0.4 61
2019-10-05 14:00:00 26.2 9 Sudeste 19 Sudeste 0 1006.5 0.3 60
2019-10-05 13:00:00 26.4 9 Este 19 Nordeste 0 1006.7 1 55
2019-10-05 12:00:00 25.9 12 Nordeste 19 Nordeste 0 1006.4 1.2 58
2019-10-05 11:00:00 25.1 8 Nordeste 15 Nordeste 0 1006.2 1.7 67
2019-10-05 10:00:00 21.7 6 Nordeste 10 Nordeste 0 1005.7 1.4 62
2019-10-05 09:00:00 18.5 5 Norte 11 Nordeste 0 1005.2 0.8 72
2019-10-05 08:00:00 15.9 4 Noroeste 8 Norte 0 1004.5 0.1 73
2019-10-05 07:00:00 16.1 4 Norte 6 Norte 0 1004.3 -0.1 72
2019-10-05 06:00:00 16.9 3 Norte 10 Oeste 0 1004.4 -0.3 72
2019-10-05 05:00:00 17.8 5 Oeste 12 Noroeste 0 1004.4 -0.5 67
2019-10-05 04:00:00 17.6 4 Oeste 13 Oeste 0 1004.4 -0.7 74
2019-10-05 03:00:00 17.7 4 Noroeste 8 Noroeste 0 1004.7 -0.8 73
2019-10-05 02:00:00 18.4 5 Oeste 11 Oeste 0 1004.9 -0.7 71
2019-10-05 01:00:00 18.7 4 Oeste 7 Oeste 0 1005.1 -0.5 77
2019-10-05 00:00:00 19.4 3 Oeste 7 Oeste 0 1005.5 0 79
2019-10-04 23:00:00 20.1 3 Oeste 6 Norte 0 1005.6 0.2 80
2019-10-04 22:00:00 20.8 4 Noroeste 5 Norte 0 1005.6 0.2 77
2019-10-04 21:00:00 21.9 4 Norte 7 Norte 0 1005.5 0.1 73
2019-10-04 20:00:00 23.3 3 Nordeste 7 Sudeste 0 1005.4 -0.2 69
2019-10-04 19:00:00 24.8 4 Sudeste 12 Sur 0 1005.4 -0.8 58
2019-10-04 18:00:00 25.6 7 Sur 15 Sur 0 1005.4 -1.3 65
2019-10-04 17:00:00 26.1 8 Sudeste 16 Sudeste 0 1005.6 -2 62
2019-10-04 16:00:00 26.8 8 Sur 17 Sudeste 0 1006.2 -1.9 59
2019-10-04 15:00:00 26.7 9 Sudeste 17 Sudeste 0 1006.7 -1.6 51
2019-10-04 14:00:00 26.8 8 Sudeste 17 Sudeste 0 1007.6 -0.8 58
2019-10-04 13:00:00 26.7 6 Sudeste 14 Sudeste 0 1008.1 -0.1 59
2019-10-04 12:00:00 26.2 5 Sur 13 Sur 0 1008.3 0.5 54
2019-10-04 11:00:00 24.5 3 Nordeste 6 Norte 0 1008.4 1.4 57
2019-10-04 10:00:00 20.5 4 Norte 7 Noroeste 0 1008.2 1.1 54
2019-10-04 09:00:00 16.5 3 Noroeste 10 Noroeste 0 1007.8 1 60
2019-10-04 08:00:00 14.4 3 Noroeste 8 Noroeste 0 1007 0.4 67
2019-10-04 07:00:00 14.6 3 Noroeste 6 Norte 0 1007.1 0.6 73
2019-10-04 06:00:00 14.8 2 Noroeste 9 Nordeste 0 1006.8 -0.2 73
2019-10-04 05:00:00 15.3 5 Norte 6 Norte 0 1006.6 -0.5 80
2019-10-04 04:00:00 15.9 3 Norte 7 Norte 0 1006.5 -0.9 80
2019-10-04 03:00:00 16.8 3 Norte 8 Norte 0 1007 -0.2 84
2019-10-04 02:00:00 17.4 4 Noroeste 8 Noroeste 0 1007.1 -0.3 84
2019-10-04 01:00:00 17.9 4 Sudoeste 9 Norte 0 1007.4 0.2 82
2019-10-04 00:00:00 18.5 5 Norte 7 Noroeste 0 1007.2 0.3 82
2019-10-03 23:00:00 19.5 2 Noroeste 9 Norte 0 1007.4 0.8 79
2019-10-03 22:00:00 20.5 6 Norte 12 Nordeste 0 1007.2 0.8 77
2019-10-03 21:00:00 21.5 6 Nordeste 10 Nordeste 0 1006.9 0.6 75
2019-10-03 20:00:00 22.4 5 Nordeste 13 Este 0 1006.6 0.1 71
2019-10-03 19:00:00 23.7 6 Este 17 Nordeste 0 1006.4 -0.2 65
2019-10-03 18:00:00 25.2 7 Este 17 Nordeste 0 1006.3 -0.3 59
2019-10-03 17:00:00 25.6 9 Sudeste 20 Este 0 1006.5 -0.4 49
2019-10-03 16:00:00 25.6 10 Este 23 Sudeste 0 1006.6 -0.7 52
2019-10-03 15:00:00 26.3 11 Sudeste 23 Este 0 1006.6 -1.3 40
2019-10-03 14:00:00 28.5 5 Oeste 22 Oeste 0 1006.9 -1 23
2019-10-03 13:00:00 27.4 10 Oeste 19 Oeste 0 1007.3 -0.5 25
2019-10-03 12:00:00 26.4 6 Oeste 13 Oeste 0 1007.9 0.4 32
2019-10-03 11:00:00 24 5 Sur 8 Sudoeste 0 1007.9 0.8 40
2019-10-03 10:00:00 19.8 4 Noroeste 8 Noroeste 0 1007.8 1.1 53
2019-10-03 09:00:00 16.5 3 Noroeste 7 Noroeste 0 1007.5 0.8 65
2019-10-03 08:00:00 15.9 2 Oeste 5 Oeste 0 1007.1 0.6 69
2019-10-03 07:00:00 16.1 3 Noroeste 8 Noroeste 0 1006.7 0.1 66
2019-10-03 06:00:00 16.5 4 Oeste 6 Oeste 0 1006.7 -0.1 68
2019-10-03 05:00:00 17.2 4 Noroeste 6 Oeste 0 1006.5 -0.6 73
2019-10-03 04:00:00 17.8 0 Calma 7 Noroeste 0 1006.6 -0.5 80
2019-10-03 03:00:00 18.2 3 Noroeste 7 Norte 0 1006.8 -0.6 78
2019-10-03 02:00:00 18.7 2 Noroeste 9 Noroeste 0 1007.1 -0.3 78
2019-10-03 01:00:00 19.2 4 Oeste 7 Oeste 0 1007.1 0.1 75
2019-10-03 00:00:00 19.9 2 Noroeste 7 Oeste 0 1007.4 0.9 73
2019-10-02 23:00:00 20.7 3 Oeste 7 Noroeste 0 1007.4 1.5 70
2019-10-02 22:00:00 21.3 3 Noroeste 7 Noroeste 0 1007 1.7 67
2019-10-02 21:00:00 22 4 Oeste 8 Sudoeste 0 1006.5 1.7 64
2019-10-02 20:00:00 23 5 Sudeste 12 Sur 0 1005.9 1.5 59
2019-10-02 19:00:00 24.2 8 Sudeste 19 Este 0 1005.3 1 56
2019-10-02 18:00:00 25.2 11 Sudeste 27 Nordeste 0 1004.8 0.8 52
2019-10-02 17:00:00 25.9 15 Sudeste 31 Sudeste 0 1004.4 0 53
2019-10-02 16:00:00 27.4 14 Nordeste 27 Norte 0 1004.3 -0.7 47
2019-10-02 15:00:00 29.9 11 Noroeste 29 Oeste 0 1004 -1.1 23
2019-10-02 14:00:00 28.5 8 Noroeste 25 Norte 0 1004.4 -0.9 26
2019-10-02 13:00:00 28.5 6 Sudoeste 24 Norte 0 1005 0.4 30
2019-10-02 12:00:00 27.3 9 Noroeste 22 Noroeste 0 1005.1 1.5 33
2019-10-02 11:00:00 25.8 9 Noroeste 23 Noroeste 0 1005.3 2.3 36
2019-10-02 10:00:00 26.1 6 Noroeste 15 Oeste 0 1004.6 2.1 38
2019-10-02 09:00:00 24 8 Noroeste 22 Norte 0 1003.6 1.6 38
2019-10-02 08:00:00 22.4 10 Noroeste 19 Noroeste 0 1003 1.4 42
2019-10-02 07:00:00 23.3 10 Noroeste 30 Noroeste 0 1002.5 0.7 39
2019-10-02 06:00:00 23.2 9 Oeste 30 Noroeste 0 1002 0.3 39
2019-10-02 05:00:00 23.2 5 Oeste 22 Noroeste 0 1001.6 0.1 42
2019-10-02 04:00:00 24.2 6 Noroeste 40 Norte 0 1001.8 0.2 38
2019-10-02 03:00:00 26.1 9 Noroeste 37 Noroeste 0 1001.7 0.5 31
2019-10-02 02:00:00 26 15 Noroeste 30 Noroeste 0 1001.5 0.1 29
2019-10-02 01:00:00 23.8 5 Noroeste 22 Oeste 0 1001.6 0.8 31
2019-10-02 00:00:00 22.5 8 Oeste 19 Oeste 0 1001.2 1 35
2019-10-01 23:00:00 22.2 5 Oeste 13 Noroeste 0 1001.4 1.4 50
2019-10-01 22:00:00 22.7 3 Norte 8 Nordeste 0 1000.8 0.9 89
2019-10-01 21:00:00 23.6 5 Norte 8 Norte 0 1000.2 0.5 87
2019-10-01 20:00:00 24.4 7 Nordeste 11 Nordeste 0 1000 0.2 84
2019-10-01 19:00:00 25.7 6 Nordeste 13 Nordeste 0 999.9 -0.3 79
2019-10-01 18:00:00 28 7 Nordeste 11 Nordeste 0 999.7 -0.8 67
2019-10-01 17:00:00 28.4 6 Sudeste 19 Sur 0 999.8 -1.4 66
2019-10-01 16:00:00 28.5 12 Sudeste 23 Sudeste 0 1000.2 -1.9 65
2019-10-01 15:00:00 31.3 9 Sur 18 Sudoeste 0 1000.5 -2.5 52
2019-10-01 14:00:00 30.1 10 Sudeste 20 Sur 0 1001.2 -2.2 54
2019-10-01 13:00:00 28.7 11 Sur 20 Sur 0 1002.1 -1 57
2019-10-01 12:00:00 26.8 9 Sur 16 Sur 0 1003 0 63
2019-10-01 11:00:00 24.6 6 Sudoeste 12 Sudoeste 0 1003.4 0.1 68
2019-10-01 10:00:00 21.7 0 Calma 5 Sudoeste 0 1003.1 -0.3 77
2019-10-01 09:00:00 18.6 0 Calma 6 Oeste 0 1003 -0.4 88
2019-10-01 08:00:00 17.9 4 Noroeste 8 Noroeste 0 1003.3 -0.5 90
2019-10-01 07:00:00 18.2 3 Noroeste 6 Noroeste 0 1003.4 -1.1 92
2019-10-01 06:00:00 18.7 3 Oeste 6 Oeste 0 1003.4 -1.7 89
2019-10-01 05:00:00 19.3 3 Noroeste 8 Noroeste 0 1003.8 -1.7 92
2019-10-01 04:00:00 19.6 4 Noroeste 8 Oeste 0 1004.5 -1.6 89
2019-10-01 03:00:00 20.2 2 Oeste 5 Oeste 0 1005.1 -1.2 87
2019-10-01 02:00:00 20.5 3 Oeste 6 Noroeste 0 1005.5 -0.9 88
2019-10-01 01:00:00 20.7 3 Oeste 5 Oeste 0 1006.1 0 87
2019-10-01 00:00:00 21.3 3 Oeste 6 Oeste 0 1006.3 0.4 88
2019-09-30 23:00:00 21.9 4 Oeste 6 Sudoeste 0 1006.4 0.6 88
2019-09-30 22:00:00 22.4 2 Oeste 6 Norte 0 1006.1 0.4 86
2019-09-30 21:00:00 23.1 4 Norte 10 Este 0 1005.9 0.1 83
2019-09-30 20:00:00 23.6 5 Nordeste 12 Este 0 1005.8 -0.3 83
2019-09-30 19:00:00 24.3 8 Este 14 Nordeste 0 1005.7 -0.7 79
2019-09-30 18:00:00 25.5 9 Nordeste 17 Sudeste 0 1005.8 -1 73
2019-09-30 17:00:00 26.6 8 Este 17 Sudeste 0 1006.1 -1.3 71
2019-09-30 16:00:00 27.2 9 Sudeste 19 Sudeste 0 1006.4 -1.4 69
2019-09-30 15:00:00 27 9 Sudeste 20 Sudeste 0 1006.8 -0.9 66
2019-09-30 14:00:00 27.1 8 Sudeste 17 Sudeste 0 1007.4 0 63
2019-09-30 13:00:00 26.9 11 Este 20 Nordeste 0 1007.8 1 61
2019-09-30 12:00:00 27.3 8 Sudeste 14 Sur 0 1007.7 1.4 52
2019-09-30 11:00:00 26.2 4 Sudeste 8 Sudeste 0 1007.4 1.3 51
2019-09-30 10:00:00 22.9 3 Sudeste 5 Sudeste 0 1006.8 0.9 64
2019-09-30 09:00:00 18.8 2 Noroeste 9 Noroeste 0 1006.3 0.3 75
2019-09-30 08:00:00 17.1 4 Oeste 8 Noroeste 0 1006.1 -0.1 78
2019-09-30 07:00:00 17.9 5 Noroeste 11 Oeste 0 1005.9 -0.8 73
2019-09-30 06:00:00 18.4 5 Oeste 10 Oeste 0 1006 -1 76
2019-09-30 05:00:00 18.8 4 Oeste 7 Noroeste 0 1006.2 -1 83
2019-09-30 04:00:00 19.2 3 Oeste 9 Oeste 0 1006.7 -0.5 91
2019-09-30 03:00:00 19.7 3 Noroeste 6 Oeste 0 1007 -0.3 89
2019-09-30 02:00:00 20.4 3 Noroeste 5 Oeste 0 1007.2 -0.3 91
2019-09-30 01:00:00 20.9 3 Sudoeste 7 Noroeste 0 1007.2 -0.4 89
2019-09-30 00:00:00 21.6 3 Oeste 6 Oeste 0 1007.3 0.1 88
2019-09-29 23:00:00 22.3 3 Norte 5 Norte 0 1007.5 0.7 87
2019-09-29 22:00:00 22.9 3 Norte 9 Norte 0 1007.6 1 86
2019-09-29 21:00:00 23.5 2 Noroeste 6 Sur 0 1007.2 0.5 82
2019-09-29 20:00:00 24.4 5 Sur 13 Sudoeste 0 1006.8 -0.2 79
2019-09-29 19:00:00 25.6 6 Sudeste 15 Sur 0 1006.6 -0.8 75
2019-09-29 18:00:00 27 9 Sur 17 Sur 0 1006.7 -1.3 70
2019-09-29 17:00:00 27.7 8 Sur 19 Sudeste 0 1007 -1.6 66
2019-09-29 16:00:00 28.5 9 Sur 19 Sudeste 0 1007.4 -1.5 62
2019-09-29 15:00:00 27.8 9 Sudeste 23 Sudeste 0 1008 -1.1 63
2019-09-29 14:00:00 28.4 9 Sudeste 20 Sudeste 0 1008.6 -0.4 58
2019-09-29 13:00:00 28.4 9 Sur 16 Sur 0 1008.9 0.1 51
2019-09-29 12:00:00 26.9 9 Sur 14 Sur 0 1009.1 0.4 50
2019-09-29 11:00:00 25 4 Sudoeste 9 Oeste 0 1009 0.5 61
2019-09-29 10:00:00 21.8 4 Oeste 10 Noroeste 0 1008.8 0.3 69
2019-09-29 09:00:00 18.3 4 Noroeste 12 Noroeste 0 1008.7 -0.1 75
2019-09-29 08:00:00 17 4 Oeste 9 Noroeste 0 1008.5 -0.5 82
2019-09-29 07:00:00 17.6 4 Noroeste 7 Noroeste 0 1008.5 -0.8 87
2019-09-29 06:00:00 18 4 Oeste 6 Noroeste 0 1008.8 -0.9 86
2019-09-29 05:00:00 18.7 3 Oeste 6 Oeste 0 1009 -0.9 88
2019-09-29 04:00:00 19.3 4 Noroeste 6 Noroeste 0 1009.3 -0.8 91
2019-09-29 03:00:00 20 4 Norte 6 Norte 0 1009.7 -0.4 90
2019-09-29 02:00:00 20.7 4 Noroeste 8 Noroeste 0 1009.9 -0.2 89
2019-09-29 01:00:00 21.6 4 Nordeste 6 Norte 0 1010.1 0.3 89
2019-09-29 00:00:00 22.1 3 Norte 6 Norte 0 1010.1 0.4 88
2019-09-28 23:00:00 22.8 3 Norte 8 Nordeste 0 1010.1 0.7 87
2019-09-28 22:00:00 22.4 3 Noroeste 6 Norte 0 1009.8 0.2 88
2019-09-28 21:00:00 22.8 4 Este 10 Sudeste 0 1009.7 0 86
2019-09-28 20:00:00 23.4 5 Nordeste 12 Nordeste 0 1009.4 -0.4 83
2019-09-28 19:00:00 24.3 5 Este 14 Nordeste 0 1009.6 -0.5 79
2019-09-28 18:00:00 25.3 6 Sudeste 14 Sudeste 0 1009.7 -0.9 74
2019-09-28 17:00:00 26.3 8 Sudeste 18 Sudeste 0 1009.8 -1.3 71
2019-09-28 16:00:00 26.5 6 Sudeste 15 Sur 0 1010.1 -1.4 71
2019-09-28 15:00:00 26.3 10 Sudeste 19 Nordeste 0 1010.6 -1 71
2019-09-28 14:00:00 26.1 10 Nordeste 17 Nordeste 0 1011.1 -0.4 68
2019-09-28 13:00:00 25.7 8 Sudeste 17 Nordeste 0 1011.5 0.9 72
2019-09-28 12:00:00 25.3 8 Este 18 Este 0 1011.6 2.1 74
2019-09-28 11:00:00 24.3 6 Este 15 Este 0 1011.5 2.8 80
2019-09-28 10:00:00 22.9 2 Este 9 Nordeste 0 1010.6 2.4 75
2019-09-28 09:00:00 19.6 7 Nordeste 10 Nordeste 0 1009.5 1.5 75
2019-09-28 08:00:00 18.9 5 Nordeste 10 Nordeste 0 1008.7 0.7 83
2019-09-28 07:00:00 18.5 3 Nordeste 11 Nordeste 0 1008.2 -0.2 84
2019-09-28 06:00:00 18.5 2 Noroeste 7 Oeste 0 1008 -0.9 88
2019-09-28 05:00:00 18.9 3 Oeste 6 Noroeste 0 1008 -1 91
2019-09-28 04:00:00 19.2 2 Oeste 5 Oeste 0 1008.4 -0.9 90
2019-09-28 03:00:00 19.7 3 Sudoeste 5 Oeste 0 1008.9 -0.5 88
2019-09-28 02:00:00 20.5 3 Oeste 6 Noroeste 0 1009 -0.1 90
2019-09-28 01:00:00 20.8 3 Noroeste 6 Oeste 0 1009.3 0.5 89
2019-09-28 00:00:00 21.4 4 Oeste 7 Oeste 0 1009.4 1.2 88
2019-09-27 23:00:00 22.2 3 Noroeste 5 Oeste 0 1009.1 1.2 88
2019-09-27 22:00:00 22.7 2 Sur 7 Sur 0 1008.8 1.2 86
2019-09-27 21:00:00 23.2 5 Sur 9 Sudeste 0 1008.2 0.9 84
2019-09-27 20:00:00 23.7 5 Sudeste 11 Sudeste 0 1007.9 0.3 80
2019-09-27 19:00:00 24.8 8 Sudeste 14 Sudeste 0 1007.6 -0.2 73
2019-09-27 18:00:00 25.7 6 Sudeste 18 Sudeste 0 1007.3 -0.9 71
2019-09-27 17:00:00 27 8 Sudeste 18 Sudeste 0 1007.6 -0.9 66
2019-09-27 16:00:00 27.1 9 Sudeste 21 Sudeste 0 1007.8 -0.7 61
2019-09-27 15:00:00 27.3 13 Sudeste 21 Sur 0 1008.2 -0.8 67
2019-09-27 14:00:00 27.4 11 Sudeste 21 Sudeste 0 1008.5 -0.7 62
2019-09-27 13:00:00 27.5 11 Sudeste 18 Sudeste 0 1008.5 -0.5 61
2019-09-27 12:00:00 27.8 8 Sur 13 Sudeste 0 1009 0.1 59
2019-09-27 11:00:00 25.3 3 Sudoeste 6 Oeste 0 1009.2 0.6 60
2019-09-27 10:00:00 22.8 3 Oeste 6 Oeste 0 1009 0.5 67
2019-09-27 09:00:00 19.2 3 Oeste 6 Noroeste 0 1008.9 0.6 80
2019-09-27 08:00:00 17.9 3 Oeste 10 Noroeste 0 1008.6 0.2 84
2019-09-27 07:00:00 17.6 4 Noroeste 5 Oeste 0 1008.5 -0.3 85
2019-09-27 06:00:00 18.1 3 Oeste 5 Oeste 0 1008.3 -1 84
2019-09-27 05:00:00 18.7 3 Noroeste 11 Oeste 0 1008.4 -1.2 87
2019-09-27 04:00:00 19.2 5 Noroeste 10 Noroeste 0 1008.8 -1.1 88
2019-09-27 03:00:00 19.5 3 Oeste 7 Noroeste 0 1009.3 -0.8 86
2019-09-27 02:00:00 20.1 3 Oeste 7 Noroeste 0 1009.6 -0.3 87
2019-09-27 01:00:00 20.6 3 Oeste 9 Oeste 0 1009.9 0.3 85
2019-09-27 00:00:00 21.3 3 Oeste 8 Oeste 0 1010.1 1 88
2019-09-26 23:00:00 22 3 Oeste 7 Norte 0 1009.9 1.1 86
2019-09-26 22:00:00 22.6 3 Noroeste 8 Sudoeste 0 1009.6 1.1 85
2019-09-26 21:00:00 23.2 5 Sur 7 Sudeste 0 1009.1 0.7 82
2019-09-26 20:00:00 23.9 4 Sudeste 9 Este 0 1008.8 0 77
2019-09-26 19:00:00 25.2 6 Sudeste 16 Sudeste 0 1008.5 -0.6 70
2019-09-26 18:00:00 26.4 9 Sudeste 15 Sudeste 0 1008.4 -0.9 63
2019-09-26 17:00:00 27.3 7 Sudeste 15 Sudeste 0 1008.8 -1.1 64
2019-09-26 16:00:00 27 10 Sudeste 17 Este 0 1009.1 -1.3 63
2019-09-26 15:00:00 27.8 9 Sudeste 17 Sudeste 0 1009.3 -1.3 64
2019-09-26 14:00:00 27.1 9 Sudeste 17 Sudeste 0 1009.9 -0.7 63
2019-09-26 13:00:00 26.8 7 Sudeste 15 Nordeste 0 1010.4 0.2 63
2019-09-26 12:00:00 25.9 6 Este 15 Sudeste 0 1010.6 1 64
2019-09-26 11:00:00 25.7 6 Este 13 Nordeste 0 1010.6 1.6 68
2019-09-26 10:00:00 23.4 4 Norte 8 Noroeste 0 1010.2 1.7 71
2019-09-26 09:00:00 19.9 6 Noroeste 9 Norte 0 1009.6 1.3 80
2019-09-26 08:00:00 18.6 3 Norte 7 Norte 0 1009 0.9 85
2019-09-26 07:00:00 18.7 3 Noroeste 5 Noroeste 0 1008.5 0.6 83
2019-09-26 06:00:00 19.2 2 Oeste 7 Norte 0 1008.3 0.3 84
2019-09-26 05:00:00 19.6 4 Norte 7 Norte 0 1008.1 0.1 81
2019-09-26 04:00:00 20.1 5 Nordeste 13 Nordeste 0 1007.9 -0.1 80
2019-09-26 03:00:00 20.2 3 Noroeste 5 Oeste 0 1008 0.1 82
2019-09-26 02:00:00 20.6 2 Noroeste 7 Oeste 0 1008 0.2 80
2019-09-26 01:00:00 21.1 3 Oeste 7 Oeste 0 1008 0.4 79
2019-09-26 00:00:00 21.8 4 Oeste 6 Oeste 0 1007.9 0.8 81
2019-09-25 23:00:00 22.6 3 Norte 9 Nordeste 0 1007.8 1.2 82
2019-09-25 22:00:00 23 4 Norte 10 Este 0 1007.6 1.4 82
2019-09-25 21:00:00 23.4 6 Nordeste 13 Este 0 1007.1 1.1 81
2019-09-25 20:00:00 24 6 Nordeste 17 Nordeste 0 1006.6 0.9 79
2019-09-25 19:00:00 25.2 11 Nordeste 23 Nordeste 0 1006.2 0.9 69
2019-09-25 18:00:00 26.2 9 Este 28 Nordeste 0 1006 1.2 67
2019-09-25 17:00:00 27.1 13 Este 31 Nordeste 0 1005.7 0.6 64
2019-09-25 16:00:00 28.3 19 Sudeste 34 Sudeste 0 1005.3 -0.3 56
2019-09-25 15:00:00 32.8 11 Oeste 23 Oeste 0 1004.8 -1.1 28
2019-09-25 14:00:00 31.9 10 Oeste 24 Oeste 0 1005.1 -0.7 31
2019-09-25 13:00:00 31.3 11 Oeste 22 Oeste 0 1005.6 0 36
2019-09-25 12:00:00 30.5 9 Oeste 20 Sudoeste 0 1005.9 0.8 38
2019-09-25 11:00:00 29.1 5 Oeste 13 Oeste 0 1005.8 1.2 43
2019-09-25 10:00:00 26.7 2 Oeste 7 Noroeste 0 1005.6 1.3 52
2019-09-25 09:00:00 22.1 3 Noroeste 8 Noroeste 0 1005.1 1 71
2019-09-25 08:00:00 20.3 3 Oeste 10 Norte 0 1004.6 0.5 72
2019-09-25 07:00:00 19.8 2 Oeste 5 Sudoeste 0 1004.3 0 70
2019-09-25 06:00:00 20.5 2 Este 7 Sudeste 0 1004.1 -0.5 62
2019-09-25 05:00:00 20.8 4 Sudeste 7 Oeste 0 1004.1 -0.7 58
2019-09-25 04:00:00 22.7 4 Oeste 17 Oeste 0 1004.3 -0.8 48
2019-09-25 03:00:00 22.3 7 Noroeste 17 Noroeste 0 1004.6 -0.9 50
2019-09-25 02:00:00 22 9 Noroeste 15 Noroeste 0 1004.8 -0.9 57
2019-09-25 01:00:00 21.7 6 Noroeste 11 Noroeste 0 1005.1 -0.6 71
2019-09-25 00:00:00 21.9 3 Oeste 9 Noroeste 0 1005.5 0.2 74
2019-09-24 23:00:00 23 3 Oeste 9 Norte 0 1005.7 0.7 77
2019-09-24 22:00:00 23.9 4 Norte 9 Nordeste 0 1005.7 0.8 74
2019-09-24 21:00:00 24.9 2 Sur 9 Sur 0 1005.3 0.6 64
2019-09-24 20:00:00 26.2 3 Sudoeste 19 Sudoeste 0 1005 -0.3 61
2019-09-24 19:00:00 27.7 10 Sur 28 Sudoeste 0 1004.9 -0.7 56
2019-09-24 18:00:00 29.5 17 Sudoeste 29 Sudoeste 0 1004.7 -1.5 48
2019-09-24 17:00:00 30.3 15 Sur 28 Sur 0 1005.3 -1.9 49
2019-09-24 16:00:00 31.2 13 Sur 27 Sur 0 1005.6 -2.4 46
2019-09-24 15:00:00 31.7 13 Sudoeste 26 Sudoeste 0 1006.2 -2 35
2019-09-24 14:00:00 30.7 11 Sudoeste 28 Sudoeste 0 1007.2 -1.5 39
2019-09-24 13:00:00 30.2 12 Sudoeste 26 Sudoeste 0 1008 -0.5 41
2019-09-24 12:00:00 29.7 9 Sudoeste 22 Sudoeste 0 1008.2 0 33
2019-09-24 11:00:00 27.6 8 Oeste 17 Oeste 0 1008.7 0.5 38
2019-09-24 10:00:00 23.9 6 Oeste 12 Oeste 0 1008.5 0.4 57
2019-09-24 09:00:00 19.9 5 Oeste 10 Noroeste 0 1008.2 0.2 69
2019-09-24 08:00:00 18.1 4 Oeste 9 Noroeste 0 1008.2 0 76
2019-09-24 07:00:00 17.8 4 Oeste 8 Oeste 0 1008.1 -0.5 80
2019-09-24 06:00:00 18.2 4 Oeste 10 Sudoeste 0 1008 -1.5 81
2019-09-24 05:00:00 18.4 4 Oeste 9 Oeste 0 1008.2 -1.6 84
2019-09-24 04:00:00 18.9 4 Oeste 8 Noroeste 0 1008.6 -1.5 84
2019-09-24 03:00:00 19.6 3 Noroeste 6 Noroeste 0 1009.5 -0.9 84
2019-09-24 02:00:00 20.1 3 Noroeste 6 Oeste 0 1009.8 -0.7 82
2019-09-24 01:00:00 20.5 3 Noroeste 7 Noroeste 0 1010.1 -0.4 81
2019-09-24 00:00:00 21.1 4 Oeste 7 Oeste 0 1010.4 0.5 80
2019-09-23 23:00:00 21.9 3 Oeste 6 Oeste 0 1010.5 1.2 76
2019-09-23 22:00:00 22.6 2 Oeste 8 Sur 0 1010.5 1.3 75
2019-09-23 21:00:00 23 3 Sur 10 Sur 0 1009.9 0.9 73
2019-09-23 20:00:00 23.8 4 Sudeste 8 Sudeste 0 1009.3 0.4 67
2019-09-23 19:00:00 24.6 5 Este 14 Sudeste 0 1009.2 -0.1 61
2019-09-23 18:00:00 25.4 7 Sudeste 18 Este 0 1009 -0.1 61
2019-09-23 17:00:00 25.8 10 Sudeste 20 Sudeste 0 1008.9 -0.6 58
2019-09-23 16:00:00 26.7 11 Sudeste 22 Sudeste 0 1009.3 -0.4 55
2019-09-23 15:00:00 27.3 11 Sudeste 23 Sur 0 1009.1 -0.9 52
2019-09-23 14:00:00 27.5 10 Sudeste 22 Este 0 1009.5 -0.6 50
2019-09-23 13:00:00 27.4 10 Sudeste 20 Este 0 1009.7 0.2 49
2019-09-23 12:00:00 27.1 9 Sudeste 17 Este 0 1010 0.9 52
2019-09-23 11:00:00 26.2 6 Nordeste 13 Norte 0 1010.1 1.8 59
2019-09-23 10:00:00 23.6 5 Norte 13 Noroeste 0 1009.5 1.8 50
2019-09-23 09:00:00 23.3 8 Norte 17 Norte 0 1009.1 2.3 45
2019-09-23 08:00:00 22.7 9 Noroeste 23 Norte 0 1008.3 1.8 45
2019-09-23 07:00:00 22.6 10 Norte 21 Norte 0 1007.7 1.2 46
2019-09-23 06:00:00 22.7 11 Noroeste 21 Noroeste 0 1006.8 0.2 48
2019-09-23 05:00:00 21.4 3 Nordeste 11 Noroeste 0 1006.5 0 55
2019-09-23 04:00:00 21.1 2 Sudeste 9 Noroeste 0 1006.5 -0.1 65
2019-09-23 03:00:00 21.6 4 Norte 8 Noroeste 0 1006.6 0.4 66
2019-09-23 02:00:00 22.7 6 Noroeste 12 Norte 0 1006.5 0.7 61
2019-09-23 01:00:00 22.2 7 Norte 12 Norte 0 1006.6 1.4 67
2019-09-23 00:00:00 23 5 Noroeste 13 Norte 0 1006.2 1.5 81
2019-09-22 23:00:00 23.6 2 Noroeste 7 Norte 0 1005.8 2 84
2019-09-22 22:00:00 24.1 3 Este 7 Este 0 1005.2 1.7 83
2019-09-22 21:00:00 24.6 4 Nordeste 8 Nordeste 0 1004.7 1.3 81
2019-09-22 20:00:00 25.4 3 Oeste 10 Sur 0 1003.8 0.7 68
2019-09-22 19:00:00 26.5 6 Sur 14 Sudeste 0 1003.5 0.2 66
2019-09-22 18:00:00 27 8 Sudeste 17 Sudeste 0 1003.4 0.3 67
2019-09-22 17:00:00 27.3 8 Sudeste 15 Sudeste 0 1003.1 -0.4 71
2019-09-22 16:00:00 27.2 8 Sudeste 19 Sur 0 1003.3 -0.3 68
2019-09-22 15:00:00 27.8 10 Sudeste 17 Sudeste 0 1003.1 -0.8 66
2019-09-22 14:00:00 27.9 10 Sudeste 18 Sudeste 0 1003.5 -0.2 67
2019-09-22 13:00:00 27.5 7 Este 17 Este 0 1003.6 0.1 66
2019-09-22 12:00:00 27.3 10 Sudeste 19 Sudeste 0 1003.9 0.8 69
2019-09-22 11:00:00 27.7 4 Sudoeste 10 Sudoeste 0 1003.7 0.5 65
2019-09-22 10:00:00 25.1 5 Oeste 11 Oeste 0 1003.5 0.3 75
2019-09-22 09:00:00 22.6 4 Noroeste 10 Noroeste 0 1003.1 0.5 89
2019-09-22 08:00:00 21.8 5 Norte 7 Norte 0 1003.2 0.9 92
2019-09-22 07:00:00 21.9 2 Oeste 5 Sudoeste 0 1003.2 0.3 91
2019-09-22 06:00:00 21.9 2 Noroeste 6 Oeste 0 1002.6 -0.5 89
2019-09-22 05:00:00 22.7 0 Calma 6 Sudoeste 0 1002.3 -0.9 87
2019-09-22 04:00:00 23.1 3 Sudoeste 5 Sur 0 1002.9 -0.5 89
2019-09-22 03:00:00 23.3 2 Sur 6 Sudoeste 0 1003.1 -0.5 89
2019-09-22 02:00:00 23.6 0 Calma 5 Noroeste 0 1003.2 -0.4 89
2019-09-22 01:00:00 23.8 3 Norte 7 Norte 0 1003.4 0.6 89
2019-09-22 00:00:00 23.9 3 Noroeste 6 Norte 0 1003.6 0.1 88
2019-09-21 23:00:00 24.1 2 Este 12 Sudeste 0 1003.6 0.6 87
2019-09-21 22:00:00 24.2 7 Nordeste 15 Nordeste 0 1002.8 0.1 85
2019-09-21 21:00:00 24.7 2 Sudoeste 16 Sudoeste 0 1003.5 1.2 80
2019-09-21 20:00:00 25.2 9 Sur 19 Sur 0 1003 1 78
2019-09-21 19:00:00 26.2 12 Sur 23 Sur 0 1002.7 0.5 72
2019-09-21 18:00:00 26.9 13 Sur 26 Sur 0 1002.3 -0.4 66
2019-09-21 17:00:00 28.2 10 Sudoeste 23 Sur 0 1002 -1.2 62
2019-09-21 16:00:00 29.5 15 Sur 27 Sur 0 1002.2 -1.4 58
2019-09-21 15:00:00 29.2 10 Sur 21 Sudeste 0 1002.7 -1.4 61
2019-09-21 14:00:00 29.4 11 Sudeste 23 Sudeste 0 1003.2 -0.9 60
2019-09-21 13:00:00 28.8 12 Sur 22 Sur 0 1003.6 0 57
2019-09-21 12:00:00 27.9 8 Sudoeste 19 Sur 0 1004.1 0.7 60
2019-09-21 11:00:00 25.9 10 Sur 17 Sur 0 1004.1 0.8 64
2019-09-21 10:00:00 23.9 3 Oeste 8 Noroeste 0 1003.6 0.3 77
2019-09-21 09:00:00 21.4 4 Oeste 9 Oeste 0 1003.4 0.3 85
2019-09-21 08:00:00 21 4 Noroeste 8 Oeste 0 1003.3 0 86
2019-09-21 07:00:00 21 3 Noroeste 9 Oeste 0 1003.3 -0.2 87
2019-09-21 06:00:00 21.5 3 Noroeste 7 Norte 0 1003.1 -1.3 82
2019-09-21 05:00:00 22 3 Nordeste 12 Norte 0 1003.3 -2.1 80
2019-09-21 04:00:00 22.3 5 Norte 11 Nordeste 0 1003.5 -1.7 84
2019-09-21 03:00:00 22.6 4 Norte 11 Norte 0 1004.4 -0.4 84
2019-09-21 02:00:00 23.1 5 Nordeste 13 Este 0 1005.4 0.2 85
2019-09-21 01:00:00 22.8 6 Nordeste 13 Nordeste 0 1005.2 -1.2 85
2019-09-21 00:00:00 23.2 9 Nordeste 22 Nordeste 0 1004.8 -1.1 84
2019-09-20 23:00:00 23.3 10 Este 23 Nordeste 0 1005.2 -0.4 87
2019-09-20 22:00:00 23.5 8 Este 17 Nordeste 0 1006.4 0.8 85
2019-09-20 21:00:00 23.5 9 Nordeste 21 Este 0 1005.9 0.2 86
2019-09-20 20:00:00 23.8 11 Este 24 Este 0 1005.6 -0.3 84
2019-09-20 19:00:00 24.2 12 Este 29 Este 0 1005.6 -1.1 82
2019-09-20 18:00:00 24.9 10 Nordeste 29 Este 0 1005.7 -1.5 74
2019-09-20 17:00:00 25.1 17 Nordeste 27 Nordeste 0 1005.9 -1.5 72
2019-09-20 16:00:00 25.8 14 Este 31 Este 0 1006.7 -0.8 70
2019-09-20 15:00:00 26.2 17 Este 35 Este 0 1007.2 -0.4 71
2019-09-20 14:00:00 26.2 15 Este 31 Nordeste 0 1007.4 -0.3 70
2019-09-20 13:00:00 26.1 13 Este 34 Este 0 1007.5 0.5 69
2019-09-20 12:00:00 25.9 17 Este 31 Nordeste 0 1007.6 0.4 72
2019-09-20 11:00:00 25.3 14 Este 28 Este 0 1007.7 0.2 70
2019-09-20 10:00:00 24.3 11 Nordeste 21 Este 0 1007 -0.7 72
2019-09-20 09:00:00 21.8 5 Norte 13 Nordeste 0 1007.2 -0.6 79
2019-09-20 08:00:00 20.9 6 Nordeste 11 Nordeste 0 1007.5 0 83
2019-09-20 07:00:00 21.1 4 Noroeste 7 Noroeste 0 1007.7 0.1 84
2019-09-20 06:00:00 20.7 2 Oeste 6 Norte 0 1007.8 0 87
2019-09-20 05:00:00 20.8 5 Norte 9 Nordeste 0 1007.5 -0.4 85
2019-09-20 04:00:00 21.2 5 Norte 7 Nordeste 0 1007.6 -0.3 87
2019-09-20 03:00:00 21.7 3 Norte 8 Este 0 1007.8 -0.3 86
2019-09-20 02:00:00 22.3 4 Nordeste 15 Este 0 1007.9 -0.3 85
2019-09-20 01:00:00 22.7 9 Nordeste 15 Nordeste 0 1007.9 0 84
2019-09-20 00:00:00 23.3 5 Este 15 Nordeste 0 1008.1 0.7 83
2019-09-19 23:00:00 23.4 8 Este 13 Este 0 1008.2 1.3 82
2019-09-19 22:00:00 23.4 5 Este 12 Este 0 1007.9 1.4 83
2019-09-19 21:00:00 23.2 5 Nordeste 12 Nordeste 0 1007.4 1 83
2019-09-19 20:00:00 23.8 6 Este 14 Este 0 1006.9 0.3 78
2019-09-19 19:00:00 24.9 8 Este 15 Nordeste 0 1006.5 -0.2 72
2019-09-19 18:00:00 26.1 7 Sudeste 19 Sur 0 1006.4 -0.9 67
2019-09-19 17:00:00 26.8 9 Sudeste 19 Sudeste 0 1006.6 -1 64
2019-09-19 16:00:00 27.3 9 Sudeste 17 Sudeste 0 1006.7 -1.4 63
2019-09-19 15:00:00 26.9 9 Sudeste 17 Sudeste 0 1007.3 -0.9 64
2019-09-19 14:00:00 26.6 8 Sudeste 18 Sudeste 0 1007.6 -0.3 67
2019-09-19 13:00:00 25.5 10 Este 23 Sur 0 1008.1 0.5 72
2019-09-19 12:00:00 25.9 8 Sudeste 18 Sudeste 0 1008.2 1.5 70
2019-09-19 11:00:00 25.5 6 Sudeste 11 Sudeste 0 1007.9 1.9 72
2019-09-19 10:00:00 23.6 3 Este 9 Norte 0 1007.6 1.7 70
2019-09-19 09:00:00 20 3 Noroeste 5 Norte 0 1006.7 0.7 82
2019-09-19 08:00:00 18.7 2 Oeste 7 Norte 0 1006 -0.1 91
2019-09-19 07:00:00 18.8 3 Noroeste 6 Norte 0 1005.9 -0.7 91
2019-09-19 06:00:00 19.2 3 Noroeste 6 Norte 0 1006 -0.8 88
2019-09-19 05:00:00 19.4 3 Noroeste 5 Oeste 0 1006.1 -0.6 88
2019-09-19 04:00:00 19.9 3 Oeste 5 Oeste 0 1006.6 -0.1 87
2019-09-19 03:00:00 20.5 3 Noroeste 4 Oeste 0 1006.8 0.2 87
2019-09-19 02:00:00 21.2 0 Calma 4 Noroeste 0 1006.7 0.3 87
2019-09-19 01:00:00 22 3 Noroeste 6 Noroeste 0 1006.7 0.4 85
2019-09-19 00:00:00 22.6 2 Oeste 4 Oeste 0 1006.6 0.7 86
2019-09-18 23:00:00 23 2 Oeste 5 Oeste 0 1006.4 1.1 84
2019-09-18 22:00:00 23.5 3 Oeste 5 Oeste 0 1006.3 1.2 83
2019-09-18 21:00:00 23.8 0 Calma 7 Nordeste 0 1005.9 1 80
2019-09-18 20:00:00 24.3 2 Este 9 Sudeste 0 1005.3 0.2 75
2019-09-18 19:00:00 25.7 8 Sudeste 13 Sudeste 0 1005.1 -0.2 73
2019-09-18 18:00:00 27.2 7 Sudeste 12 Sur 0 1004.9 -0.8 67
2019-09-18 17:00:00 27.4 7 Sudeste 17 Sur 0 1005.1 -0.9 68
2019-09-18 16:00:00 27.7 9 Sudeste 19 Sudeste 0 1005.3 -1 65
2019-09-18 15:00:00 27.7 6 Sudeste 14 Sudeste 0 1005.7 -0.9 66
2019-09-18 14:00:00 27.7 8 Sudeste 16 Sudeste 0 1006 -0.5 67
2019-09-18 13:00:00 27.2 6 Sudeste 15 Sudeste 0 1006.3 0.4 67
2019-09-18 12:00:00 26.5 5 Nordeste 12 Sudeste 0 1006.6 1.2 70
2019-09-18 11:00:00 25.9 5 Sudeste 11 Sudeste 0 1006.5 2 73
2019-09-18 10:00:00 23.8 5 Norte 8 Norte 0 1005.9 1.7 75
2019-09-18 09:00:00 20.8 0 Calma 5 Nordeste 0 1005.4 1.2 87
2019-09-18 08:00:00 19.2 2 Nordeste 6 Norte 0 1004.5 0.4 92
2019-09-18 07:00:00 19.4 0 Calma 11 Noroeste 0 1004.2 -0.3 91
2019-09-18 06:00:00 19.8 6 Noroeste 14 Noroeste 0 1004.2 -0.6 90
2019-09-18 05:00:00 20 3 Noroeste 6 Oeste 0 1004.1 -1.2 92
2019-09-18 04:00:00 20.3 4 Oeste 9 Oeste 0 1004.5 -1 89
2019-09-18 03:00:00 20.8 2 Oeste 5 Oeste 0 1004.8 -1.3 90
2019-09-18 02:00:00 21.3 4 Norte 6 Norte 0 1005.3 -1.1 90
2019-09-18 01:00:00 21.9 3 Norte 9 Nordeste 0 1005.5 -0.8 89
2019-09-18 00:00:00 22.2 4 Nordeste 10 Norte 0 1006.1 0.8 89
2019-09-17 23:00:00 22.6 4 Norte 8 Norte 0 1006.4 1.5 88
2019-09-17 22:00:00 23.1 4 Sudoeste 14 Sudoeste 0 1006.3 1.5 85
2019-09-17 21:00:00 24 6 Sudoeste 15 Sur 0 1005.3 -0.4 80